sensor_id;sensor_type;location;lat;lon;timestamp;P1;durP1;ratioP1;P2;durP2;ratioP2
33952;SDS011;20231;42.710;23.280;2023-02-08T00:01:33;26.08;;;13.88;;
33952;SDS011;20231;42.710;23.280;2023-02-08T00:03:59;25.73;;;13.88;;
33952;SDS011;20231;42.710;23.280;2023-02-08T00:06:24;29.55;;;13.82;;
33952;SDS011;20231;42.710;23.280;2023-02-08T00:08:50;24.45;;;13.32;;
33952;SDS011;20231;42.710;23.280;2023-02-08T00:11:15;24.52;;;12.60;;
33952;SDS011;20231;42.710;23.280;2023-02-08T00:13:40;25.83;;;12.63;;
33952;SDS011;20231;42.710;23.280;2023-02-08T00:16:06;24.45;;;13.05;;
33952;SDS011;20231;42.710;23.280;2023-02-08T00:18:32;27.48;;;13.02;;
33952;SDS011;20231;42.710;23.280;2023-02-08T00:20:57;24.13;;;12.80;;
33952;SDS011;20231;42.710;23.280;2023-02-08T00:23:23;23.98;;;12.75;;
33952;SDS011;20231;42.710;23.280;2023-02-08T00:25:50;24.25;;;11.35;;
33952;SDS011;20231;42.710;23.280;2023-02-08T00:28:16;24.80;;;12.43;;
33952;SDS011;20231;42.710;23.280;2023-02-08T00:30:42;23.05;;;12.38;;
33952;SDS011;20231;42.710;23.280;2023-02-08T00:33:08;22.50;;;11.43;;
33952;SDS011;20231;42.710;23.280;2023-02-08T00:35:34;21.23;;;12.10;;
33952;SDS011;20231;42.710;23.280;2023-02-08T00:38:00;23.27;;;12.18;;
33952;SDS011;20231;42.710;23.280;2023-02-08T00:40:25;19.17;;;11.13;;
33952;SDS011;20231;42.710;23.280;2023-02-08T00:42:51;25.63;;;12.27;;
33952;SDS011;20231;42.710;23.280;2023-02-08T00:45:17;25.00;;;11.70;;
33952;SDS011;20231;42.710;23.280;2023-02-08T00:47:42;20.50;;;11.60;;
33952;SDS011;20231;42.710;23.280;2023-02-08T00:50:08;22.73;;;11.65;;
33952;SDS011;20231;42.710;23.280;2023-02-08T00:52:34;20.17;;;11.27;;
33952;SDS011;20231;42.710;23.280;2023-02-08T00:55:00;23.13;;;12.18;;
33952;SDS011;20231;42.710;23.280;2023-02-08T00:57:25;23.88;;;12.05;;
33952;SDS011;20231;42.710;23.280;2023-02-08T00:59:51;20.85;;;10.95;;
33952;SDS011;20231;42.710;23.280;2023-02-08T01:02:16;21.35;;;12.68;;
33952;SDS011;20231;42.710;23.280;2023-02-08T01:04:41;23.85;;;11.85;;
33952;SDS011;20231;42.710;23.280;2023-02-08T01:07:07;25.23;;;12.68;;
33952;SDS011;20231;42.710;23.280;2023-02-08T01:09:32;22.63;;;11.75;;
33952;SDS011;20231;42.710;23.280;2023-02-08T01:11:59;23.77;;;12.38;;
33952;SDS011;20231;42.710;23.280;2023-02-08T01:14:24;31.83;;;17.55;;
33952;SDS011;20231;42.710;23.280;2023-02-08T01:16:50;32.20;;;16.15;;
33952;SDS011;20231;42.710;23.280;2023-02-08T01:19:16;25.95;;;14.57;;
33952;SDS011;20231;42.710;23.280;2023-02-08T01:21:41;26.33;;;13.70;;
33952;SDS011;20231;42.710;23.280;2023-02-08T01:24:08;28.45;;;13.82;;
33952;SDS011;20231;42.710;23.280;2023-02-08T01:26:34;24.90;;;14.10;;
33952;SDS011;20231;42.710;23.280;2023-02-08T01:29:00;28.42;;;13.85;;
33952;SDS011;20231;42.710;23.280;2023-02-08T01:31:28;23.15;;;12.82;;
33952;SDS011;20231;42.710;23.280;2023-02-08T01:33:56;29.38;;;13.15;;
33952;SDS011;20231;42.710;23.280;2023-02-08T01:36:22;23.83;;;13.38;;
33952;SDS011;20231;42.710;23.280;2023-02-08T01:38:48;24.77;;;12.88;;
33952;SDS011;20231;42.710;23.280;2023-02-08T01:46:36;25.77;;;12.95;;
33952;SDS011;20231;42.710;23.280;2023-02-08T01:49:24;22.88;;;12.27;;
33952;SDS011;20231;42.710;23.280;2023-02-08T01:52:03;26.38;;;14.00;;
33952;SDS011;20231;42.710;23.280;2023-02-08T01:54:43;27.25;;;13.52;;
33952;SDS011;20231;42.710;23.280;2023-02-08T01:57:13;27.50;;;13.68;;
33952;SDS011;20231;42.710;23.280;2023-02-08T01:59:49;27.25;;;14.50;;
33952;SDS011;20231;42.710;23.280;2023-02-08T02:02:21;29.08;;;14.25;;
33952;SDS011;20231;42.710;23.280;2023-02-08T02:04:49;28.05;;;14.30;;
33952;SDS011;20231;42.710;23.280;2023-02-08T02:07:16;30.50;;;15.35;;
33952;SDS011;20231;42.710;23.280;2023-02-08T02:09:51;27.45;;;14.05;;
33952;SDS011;20231;42.710;23.280;2023-02-08T02:12:22;31.13;;;13.00;;
33952;SDS011;20231;42.710;23.280;2023-02-08T02:14:48;24.85;;;14.15;;
33952;SDS011;20231;42.710;23.280;2023-02-08T02:17:13;31.02;;;14.43;;
33952;SDS011;20231;42.710;23.280;2023-02-08T02:19:47;29.67;;;14.90;;
33952;SDS011;20231;42.710;23.280;2023-02-08T02:33:05;30.13;;;15.50;;
33952;SDS011;20231;42.710;23.280;2023-02-08T02:35:59;29.85;;;15.05;;
33952;SDS011;20231;42.710;23.280;2023-02-08T02:44:38;30.65;;;15.48;;
33952;SDS011;20231;42.710;23.280;2023-02-08T02:47:37;30.65;;;15.85;;
33952;SDS011;20231;42.710;23.280;2023-02-08T02:50:22;37.90;;;16.42;;
33952;SDS011;20231;42.710;23.280;2023-02-08T02:53:06;31.02;;;16.17;;
33952;SDS011;20231;42.710;23.280;2023-02-08T02:55:42;33.58;;;15.65;;
33952;SDS011;20231;42.710;23.280;2023-02-08T02:58:12;29.27;;;15.65;;
33952;SDS011;20231;42.710;23.280;2023-02-08T03:00:41;28.73;;;14.40;;
33952;SDS011;20231;42.710;23.280;2023-02-08T03:03:10;28.85;;;14.77;;
33952;SDS011;20231;42.710;23.280;2023-02-08T03:05:45;31.38;;;16.33;;
33952;SDS011;20231;42.710;23.280;2023-02-08T03:11:22;34.72;;;14.88;;
33952;SDS011;20231;42.710;23.280;2023-02-08T03:13:54;32.53;;;16.55;;
33952;SDS011;20231;42.710;23.280;2023-02-08T03:24:09;37.78;;;18.30;;
33952;SDS011;20231;42.710;23.280;2023-02-08T03:26:59;37.78;;;18.13;;
33952;SDS011;20231;42.710;23.280;2023-02-08T03:29:41;32.90;;;17.58;;
33952;SDS011;20231;42.710;23.280;2023-02-08T03:33:00;36.85;;;19.13;;
33952;SDS011;20231;42.710;23.280;2023-02-08T03:35:20;38.33;;;18.48;;
33952;SDS011;20231;42.710;23.280;2023-02-08T03:37:59;36.28;;;16.67;;
33952;SDS011;20231;42.710;23.280;2023-02-08T03:40:34;41.15;;;18.70;;
33952;SDS011;20231;42.710;23.280;2023-02-08T03:43:24;38.05;;;19.50;;
33952;SDS011;20231;42.710;23.280;2023-02-08T03:46:04;41.63;;;19.10;;
33952;SDS011;20231;42.710;23.280;2023-02-08T03:48:35;36.88;;;17.50;;
33952;SDS011;20231;42.710;23.280;2023-02-08T03:51:04;36.33;;;17.83;;
33952;SDS011;20231;42.710;23.280;2023-02-08T03:53:31;34.58;;;17.45;;
33952;SDS011;20231;42.710;23.280;2023-02-08T03:56:02;38.05;;;18.95;;
33952;SDS011;20231;42.710;23.280;2023-02-08T03:59:06;42.25;;;19.25;;
33952;SDS011;20231;42.710;23.280;2023-02-08T04:01:28;39.35;;;19.70;;
33952;SDS011;20231;42.710;23.280;2023-02-08T04:03:57;39.95;;;18.42;;
33952;SDS011;20231;42.710;23.280;2023-02-08T04:06:24;37.88;;;18.55;;
33952;SDS011;20231;42.710;23.280;2023-02-08T04:08:50;34.78;;;17.80;;
33952;SDS011;20231;42.710;23.280;2023-02-08T04:11:15;37.85;;;18.00;;
33952;SDS011;20231;42.710;23.280;2023-02-08T04:13:41;36.97;;;18.63;;
33952;SDS011;20231;42.710;23.280;2023-02-08T04:16:06;37.38;;;16.90;;
33952;SDS011;20231;42.710;23.280;2023-02-08T04:18:34;35.30;;;17.17;;
33952;SDS011;20231;42.710;23.280;2023-02-08T04:21:00;36.50;;;17.88;;
33952;SDS011;20231;42.710;23.280;2023-02-08T04:23:25;35.33;;;17.58;;
33952;SDS011;20231;42.710;23.280;2023-02-08T04:25:50;35.17;;;16.77;;
33952;SDS011;20231;42.710;23.280;2023-02-08T04:28:16;38.03;;;17.20;;
33952;SDS011;20231;42.710;23.280;2023-02-08T04:30:41;33.53;;;16.85;;
33952;SDS011;20231;42.710;23.280;2023-02-08T04:33:06;30.17;;;15.82;;
33952;SDS011;20231;42.710;23.280;2023-02-08T04:35:32;32.72;;;15.85;;
33952;SDS011;20231;42.710;23.280;2023-02-08T04:37:58;34.85;;;17.48;;
33952;SDS011;20231;42.710;23.280;2023-02-08T04:40:23;33.75;;;16.20;;
33952;SDS011;20231;42.710;23.280;2023-02-08T04:42:49;35.42;;;16.40;;
33952;SDS011;20231;42.710;23.280;2023-02-08T04:45:14;34.38;;;17.17;;
33952;SDS011;20231;42.710;23.280;2023-02-08T04:47:39;35.05;;;17.60;;
33952;SDS011;20231;42.710;23.280;2023-02-08T04:50:05;32.65;;;17.35;;
33952;SDS011;20231;42.710;23.280;2023-02-08T04:52:30;33.60;;;15.88;;
33952;SDS011;20231;42.710;23.280;2023-02-08T04:54:56;36.85;;;17.25;;
33952;SDS011;20231;42.710;23.280;2023-02-08T04:57:21;30.00;;;16.40;;
33952;SDS011;20231;42.710;23.280;2023-02-08T04:59:47;33.75;;;16.52;;
33952;SDS011;20231;42.710;23.280;2023-02-08T05:02:12;35.63;;;16.52;;
33952;SDS011;20231;42.710;23.280;2023-02-08T05:04:37;34.30;;;16.02;;
33952;SDS011;20231;42.710;23.280;2023-02-08T05:07:03;32.15;;;16.88;;
33952;SDS011;20231;42.710;23.280;2023-02-08T05:09:28;34.08;;;15.43;;
33952;SDS011;20231;42.710;23.280;2023-02-08T05:11:54;28.92;;;14.82;;
33952;SDS011;20231;42.710;23.280;2023-02-08T05:14:19;34.83;;;16.40;;
33952;SDS011;20231;42.710;23.280;2023-02-08T05:16:44;31.60;;;16.00;;
33952;SDS011;20231;42.710;23.280;2023-02-08T05:19:10;33.80;;;18.08;;
33952;SDS011;20231;42.710;23.280;2023-02-08T05:21:35;39.25;;;17.30;;
33952;SDS011;20231;42.710;23.280;2023-02-08T05:24:01;34.47;;;16.77;;
33952;SDS011;20231;42.710;23.280;2023-02-08T05:26:26;37.20;;;17.52;;
33952;SDS011;20231;42.710;23.280;2023-02-08T05:28:51;33.67;;;16.13;;
33952;SDS011;20231;42.710;23.280;2023-02-08T05:31:18;35.10;;;17.90;;
33952;SDS011;20231;42.710;23.280;2023-02-08T05:33:46;33.40;;;16.05;;
33952;SDS011;20231;42.710;23.280;2023-02-08T05:36:13;33.40;;;17.30;;
33952;SDS011;20231;42.710;23.280;2023-02-08T05:38:38;34.38;;;16.30;;
33952;SDS011;20231;42.710;23.280;2023-02-08T05:41:03;29.33;;;15.57;;
33952;SDS011;20231;42.710;23.280;2023-02-08T05:43:29;32.75;;;14.70;;
33952;SDS011;20231;42.710;23.280;2023-02-08T05:45:54;27.48;;;14.85;;
33952;SDS011;20231;42.710;23.280;2023-02-08T05:48:20;38.72;;;16.25;;
33952;SDS011;20231;42.710;23.280;2023-02-08T05:50:45;35.08;;;15.57;;
33952;SDS011;20231;42.710;23.280;2023-02-08T05:53:10;30.02;;;15.15;;
33952;SDS011;20231;42.710;23.280;2023-02-08T05:55:36;36.58;;;17.20;;
33952;SDS011;20231;42.710;23.280;2023-02-08T05:58:01;33.00;;;15.27;;
33952;SDS011;20231;42.710;23.280;2023-02-08T06:00:26;44.33;;;20.02;;
33952;SDS011;20231;42.710;23.280;2023-02-08T06:02:52;50.22;;;21.95;;
33952;SDS011;20231;42.710;23.280;2023-02-08T06:05:17;48.13;;;22.45;;
33952;SDS011;20231;42.710;23.280;2023-02-08T06:07:43;46.10;;;20.05;;
33952;SDS011;20231;42.710;23.280;2023-02-08T06:10:08;36.42;;;18.38;;
33952;SDS011;20231;42.710;23.280;2023-02-08T06:12:34;46.38;;;21.75;;
33952;SDS011;20231;42.710;23.280;2023-02-08T06:15:00;33.67;;;16.80;;
33952;SDS011;20231;42.710;23.280;2023-02-08T06:17:25;43.88;;;19.88;;
33952;SDS011;20231;42.710;23.280;2023-02-08T06:19:51;44.15;;;20.27;;
33952;SDS011;20231;42.710;23.280;2023-02-08T06:22:16;37.78;;;18.02;;
33952;SDS011;20231;42.710;23.280;2023-02-08T06:24:41;37.72;;;17.52;;
33952;SDS011;20231;42.710;23.280;2023-02-08T06:27:07;41.65;;;20.05;;
33952;SDS011;20231;42.710;23.280;2023-02-08T06:29:32;37.25;;;18.50;;
33952;SDS011;20231;42.710;23.280;2023-02-08T06:31:57;42.10;;;19.52;;
33952;SDS011;20231;42.710;23.280;2023-02-08T06:34:23;40.60;;;20.85;;
33952;SDS011;20231;42.710;23.280;2023-02-08T06:36:48;41.65;;;19.73;;
33952;SDS011;20231;42.710;23.280;2023-02-08T06:39:14;62.63;;;28.60;;
33952;SDS011;20231;42.710;23.280;2023-02-08T06:41:39;61.97;;;27.40;;
33952;SDS011;20231;42.710;23.280;2023-02-08T06:44:05;56.35;;;28.27;;
33952;SDS011;20231;42.710;23.280;2023-02-08T06:46:30;69.28;;;33.58;;
33952;SDS011;20231;42.710;23.280;2023-02-08T06:48:56;87.68;;;38.15;;
33952;SDS011;20231;42.710;23.280;2023-02-08T06:51:23;79.57;;;36.42;;
33952;SDS011;20231;42.710;23.280;2023-02-08T06:53:48;70.50;;;31.20;;
33952;SDS011;20231;42.710;23.280;2023-02-08T06:56:13;49.65;;;24.30;;
33952;SDS011;20231;42.710;23.280;2023-02-08T06:58:39;45.55;;;23.35;;
33952;SDS011;20231;42.710;23.280;2023-02-08T07:01:04;50.42;;;23.10;;
33952;SDS011;20231;42.710;23.280;2023-02-08T07:03:30;44.22;;;20.90;;
33952;SDS011;20231;42.710;23.280;2023-02-08T07:05:55;36.10;;;19.20;;
33952;SDS011;20231;42.710;23.280;2023-02-08T07:08:20;32.30;;;17.60;;
33952;SDS011;20231;42.710;23.280;2023-02-08T07:10:46;30.90;;;15.70;;
33952;SDS011;20231;42.710;23.280;2023-02-08T07:13:12;33.75;;;15.95;;
33952;SDS011;20231;42.710;23.280;2023-02-08T07:15:38;34.50;;;15.60;;
33952;SDS011;20231;42.710;23.280;2023-02-08T07:18:03;32.35;;;15.38;;
33952;SDS011;20231;42.710;23.280;2023-02-08T07:20:28;36.45;;;16.17;;
33952;SDS011;20231;42.710;23.280;2023-02-08T07:22:54;30.15;;;16.20;;
33952;SDS011;20231;42.710;23.280;2023-02-08T07:25:19;39.38;;;16.27;;
33952;SDS011;20231;42.710;23.280;2023-02-08T07:27:45;34.13;;;17.52;;
33952;SDS011;20231;42.710;23.280;2023-02-08T07:30:10;50.28;;;16.23;;
33952;SDS011;20231;42.710;23.280;2023-02-08T07:32:36;35.33;;;16.73;;
33952;SDS011;20231;42.710;23.280;2023-02-08T07:35:01;31.92;;;16.20;;
33952;SDS011;20231;42.710;23.280;2023-02-08T07:37:26;36.13;;;16.65;;
33952;SDS011;20231;42.710;23.280;2023-02-08T07:39:52;43.17;;;19.40;;
33952;SDS011;20231;42.710;23.280;2023-02-08T07:42:17;43.22;;;20.10;;
33952;SDS011;20231;42.710;23.280;2023-02-08T07:44:43;44.10;;;19.83;;
33952;SDS011;20231;42.710;23.280;2023-02-08T07:47:08;33.70;;;15.95;;
33952;SDS011;20231;42.710;23.280;2023-02-08T07:49:33;29.75;;;14.95;;
33952;SDS011;20231;42.710;23.280;2023-02-08T07:51:59;32.90;;;15.70;;
33952;SDS011;20231;42.710;23.280;2023-02-08T07:54:25;36.47;;;18.17;;
33952;SDS011;20231;42.710;23.280;2023-02-08T07:56:51;36.47;;;17.35;;
33952;SDS011;20231;42.710;23.280;2023-02-08T07:59:16;33.78;;;15.82;;
33952;SDS011;20231;42.710;23.280;2023-02-08T08:01:42;29.98;;;15.20;;
33952;SDS011;20231;42.710;23.280;2023-02-08T08:04:07;33.58;;;16.48;;
33952;SDS011;20231;42.710;23.280;2023-02-08T08:06:33;31.67;;;16.52;;
33952;SDS011;20231;42.710;23.280;2023-02-08T08:08:58;29.55;;;15.00;;
33952;SDS011;20231;42.710;23.280;2023-02-08T08:11:24;32.63;;;14.68;;
33952;SDS011;20231;42.710;23.280;2023-02-08T08:13:49;30.73;;;16.02;;
33952;SDS011;20231;42.710;23.280;2023-02-08T08:16:15;32.35;;;15.15;;
33952;SDS011;20231;42.710;23.280;2023-02-08T08:18:41;32.85;;;15.20;;
33952;SDS011;20231;42.710;23.280;2023-02-08T08:21:07;28.50;;;14.52;;
33952;SDS011;20231;42.710;23.280;2023-02-08T08:23:32;32.75;;;14.60;;
33952;SDS011;20231;42.710;23.280;2023-02-08T08:26:04;30.83;;;15.18;;
33952;SDS011;20231;42.710;23.280;2023-02-08T08:28:31;30.63;;;15.50;;
33952;SDS011;20231;42.710;23.280;2023-02-08T08:30:57;35.72;;;14.13;;
33952;SDS011;20231;42.710;23.280;2023-02-08T08:33:23;40.28;;;17.33;;
33952;SDS011;20231;42.710;23.280;2023-02-08T08:35:48;35.67;;;17.35;;
33952;SDS011;20231;42.710;23.280;2023-02-08T08:38:13;38.78;;;16.67;;
33952;SDS011;20231;42.710;23.280;2023-02-08T08:40:39;40.20;;;17.85;;
33952;SDS011;20231;42.710;23.280;2023-02-08T08:43:04;36.08;;;17.25;;
33952;SDS011;20231;42.710;23.280;2023-02-08T08:45:30;42.85;;;17.70;;
33952;SDS011;20231;42.710;23.280;2023-02-08T08:47:55;30.90;;;15.88;;
33952;SDS011;20231;42.710;23.280;2023-02-08T08:50:20;29.58;;;14.65;;
33952;SDS011;20231;42.710;23.280;2023-02-08T08:52:46;31.42;;;15.82;;
33952;SDS011;20231;42.710;23.280;2023-02-08T08:55:11;33.85;;;17.63;;
33952;SDS011;20231;42.710;23.280;2023-02-08T08:57:37;32.47;;;16.10;;
33952;SDS011;20231;42.710;23.280;2023-02-08T09:00:03;36.70;;;17.48;;
33952;SDS011;20231;42.710;23.280;2023-02-08T09:02:28;33.95;;;16.08;;
33952;SDS011;20231;42.710;23.280;2023-02-08T09:04:54;34.00;;;16.70;;
33952;SDS011;20231;42.710;23.280;2023-02-08T09:07:19;41.60;;;17.55;;
33952;SDS011;20231;42.710;23.280;2023-02-08T09:09:45;36.42;;;17.77;;
33952;SDS011;20231;42.710;23.280;2023-02-08T09:12:13;32.92;;;16.42;;
33952;SDS011;20231;42.710;23.280;2023-02-08T09:14:42;34.60;;;17.25;;
33952;SDS011;20231;42.710;23.280;2023-02-08T09:17:09;37.97;;;17.80;;
33952;SDS011;20231;42.710;23.280;2023-02-08T09:19:35;38.70;;;18.75;;
33952;SDS011;20231;42.710;23.280;2023-02-08T09:22:00;37.10;;;17.75;;
33952;SDS011;20231;42.710;23.280;2023-02-08T09:24:25;43.55;;;17.63;;
33952;SDS011;20231;42.710;23.280;2023-02-08T09:26:51;32.03;;;14.80;;
33952;SDS011;20231;42.710;23.280;2023-02-08T09:29:16;29.13;;;14.30;;
33952;SDS011;20231;42.710;23.280;2023-02-08T09:31:42;28.90;;;14.23;;
33952;SDS011;20231;42.710;23.280;2023-02-08T09:34:07;32.35;;;15.93;;
33952;SDS011;20231;42.710;23.280;2023-02-08T09:36:34;26.15;;;14.15;;
33952;SDS011;20231;42.710;23.280;2023-02-08T09:39:06;23.85;;;12.07;;
33952;SDS011;20231;42.710;23.280;2023-02-08T09:46:43;22.42;;;11.65;;
33952;SDS011;20231;42.710;23.280;2023-02-08T09:49:35;24.02;;;13.07;;
33952;SDS011;20231;42.710;23.280;2023-02-08T09:52:12;25.48;;;11.15;;
33952;SDS011;20231;42.710;23.280;2023-02-08T09:54:43;25.15;;;12.75;;
33952;SDS011;20231;42.710;23.280;2023-02-08T09:57:16;22.60;;;11.80;;
33952;SDS011;20231;42.710;23.280;2023-02-08T09:59:54;22.90;;;11.73;;
33952;SDS011;20231;42.710;23.280;2023-02-08T10:02:30;21.95;;;12.23;;
33952;SDS011;20231;42.710;23.280;2023-02-08T10:04:59;21.20;;;10.45;;
33952;SDS011;20231;42.710;23.280;2023-02-08T10:07:27;27.25;;;11.07;;
33952;SDS011;20231;42.710;23.280;2023-02-08T10:09:55;22.15;;;11.25;;
33952;SDS011;20231;42.710;23.280;2023-02-08T10:13:00;20.27;;;11.65;;
33952;SDS011;20231;42.710;23.280;2023-02-08T10:18:17;23.05;;;11.63;;
33952;SDS011;20231;42.710;23.280;2023-02-08T10:21:06;24.67;;;13.07;;
33952;SDS011;20231;42.710;23.280;2023-02-08T10:24:04;23.73;;;10.50;;
33952;SDS011;20231;42.710;23.280;2023-02-08T10:26:43;18.55;;;10.40;;
33952;SDS011;20231;42.710;23.280;2023-02-08T10:32:14;16.42;;;9.43;;
33952;SDS011;20231;42.710;23.280;2023-02-08T10:37:22;28.05;;;9.73;;
33952;SDS011;20231;42.710;23.280;2023-02-08T10:40:14;31.05;;;12.80;;
33952;SDS011;20231;42.710;23.280;2023-02-08T10:42:44;18.33;;;10.10;;
33952;SDS011;20231;42.710;23.280;2023-02-08T10:45:30;15.50;;;9.43;;
33952;SDS011;20231;42.710;23.280;2023-02-08T10:48:08;19.08;;;10.05;;
33952;SDS011;20231;42.710;23.280;2023-02-08T10:50:39;17.15;;;9.82;;
33952;SDS011;20231;42.710;23.280;2023-02-08T10:53:09;20.55;;;9.40;;
33952;SDS011;20231;42.710;23.280;2023-02-08T10:55:39;21.70;;;10.43;;
33952;SDS011;20231;42.710;23.280;2023-02-08T10:58:06;23.10;;;11.63;;
33952;SDS011;20231;42.710;23.280;2023-02-08T11:00:36;16.60;;;9.73;;
33952;SDS011;20231;42.710;23.280;2023-02-08T11:03:12;27.33;;;10.35;;
33952;SDS011;20231;42.710;23.280;2023-02-08T11:05:41;19.75;;;10.65;;
33952;SDS011;20231;42.710;23.280;2023-02-08T11:08:10;19.60;;;11.30;;
33952;SDS011;20231;42.710;23.280;2023-02-08T11:10:44;15.65;;;10.30;;
33952;SDS011;20231;42.710;23.280;2023-02-08T11:13:20;19.88;;;11.10;;
33952;SDS011;20231;42.710;23.280;2023-02-08T11:15:47;19.40;;;11.05;;
33952;SDS011;20231;42.710;23.280;2023-02-08T11:18:20;25.10;;;12.48;;
33952;SDS011;20231;42.710;23.280;2023-02-08T11:20:50;20.42;;;11.02;;
33952;SDS011;20231;42.710;23.280;2023-02-08T11:23:24;29.65;;;11.05;;
33952;SDS011;20231;42.710;23.280;2023-02-08T11:25:53;23.52;;;11.18;;
33952;SDS011;20231;42.710;23.280;2023-02-08T11:28:36;22.60;;;11.85;;
33952;SDS011;20231;42.710;23.280;2023-02-08T11:31:03;21.15;;;11.13;;
33952;SDS011;20231;42.710;23.280;2023-02-08T11:33:50;27.45;;;11.13;;
33952;SDS011;20231;42.710;23.280;2023-02-08T11:36:23;20.52;;;10.48;;
33952;SDS011;20231;42.710;23.280;2023-02-08T11:38:48;20.65;;;10.38;;
33952;SDS011;20231;42.710;23.280;2023-02-08T11:41:15;17.02;;;9.50;;
33952;SDS011;20231;42.710;23.280;2023-02-08T11:43:43;23.55;;;11.30;;
33952;SDS011;20231;42.710;23.280;2023-02-08T11:46:23;20.35;;;11.07;;
33952;SDS011;20231;42.710;23.280;2023-02-08T11:48:51;22.90;;;11.25;;
33952;SDS011;20231;42.710;23.280;2023-02-08T11:51:31;27.67;;;13.02;;
33952;SDS011;20231;42.710;23.280;2023-02-08T11:53:59;21.15;;;11.70;;
33952;SDS011;20231;42.710;23.280;2023-02-08T11:56:30;22.70;;;10.75;;
33952;SDS011;20231;42.710;23.280;2023-02-08T12:01:43;18.75;;;10.25;;
33952;SDS011;20231;42.710;23.280;2023-02-08T12:04:10;19.52;;;10.13;;
33952;SDS011;20231;42.710;23.280;2023-02-08T12:12:32;21.88;;;9.90;;
33952;SDS011;20231;42.710;23.280;2023-02-08T12:15:30;19.05;;;9.32;;
33952;SDS011;20231;42.710;23.280;2023-02-08T12:21:08;18.42;;;10.23;;
33952;SDS011;20231;42.710;23.280;2023-02-08T12:26:38;16.55;;;7.78;;
33952;SDS011;20231;42.710;23.280;2023-02-08T12:29:34;15.52;;;8.43;;
33952;SDS011;20231;42.710;23.280;2023-02-08T12:48:45;20.42;;;7.70;;
33952;SDS011;20231;42.710;23.280;2023-02-08T12:53:59;14.85;;;6.40;;
33952;SDS011;20231;42.710;23.280;2023-02-08T12:56:34;16.00;;;7.75;;
33952;SDS011;20231;42.710;23.280;2023-02-08T12:59:03;11.40;;;6.30;;
33952;SDS011;20231;42.710;23.280;2023-02-08T13:01:39;11.82;;;6.75;;
33952;SDS011;20231;42.710;23.280;2023-02-08T13:04:10;10.18;;;5.82;;
33952;SDS011;20231;42.710;23.280;2023-02-08T13:06:48;14.75;;;6.32;;
33952;SDS011;20231;42.710;23.280;2023-02-08T13:14:48;7.82;;;5.53;;
33952;SDS011;20231;42.710;23.280;2023-02-08T13:17:21;10.07;;;6.50;;
33952;SDS011;20231;42.710;23.280;2023-02-08T13:19:57;15.10;;;7.07;;
33952;SDS011;20231;42.710;23.280;2023-02-08T13:22:29;11.30;;;6.78;;
33952;SDS011;20231;42.710;23.280;2023-02-08T13:24:58;12.15;;;7.38;;
33952;SDS011;20231;42.710;23.280;2023-02-08T13:27:25;10.60;;;6.25;;
33952;SDS011;20231;42.710;23.280;2023-02-08T13:29:51;10.57;;;5.93;;
33952;SDS011;20231;42.710;23.280;2023-02-08T13:35:01;14.77;;;8.57;;
33952;SDS011;20231;42.710;23.280;2023-02-08T13:40:49;12.30;;;6.95;;
33952;SDS011;20231;42.710;23.280;2023-02-08T13:43:34;13.32;;;7.38;;
33952;SDS011;20231;42.710;23.280;2023-02-08T13:46:03;13.13;;;7.53;;
33952;SDS011;20231;42.710;23.280;2023-02-08T13:48:39;13.38;;;7.10;;
33952;SDS011;20231;42.710;23.280;2023-02-08T13:51:41;10.73;;;6.68;;
33952;SDS011;20231;42.710;23.280;2023-02-08T13:56:40;14.77;;;7.65;;
33952;SDS011;20231;42.710;23.280;2023-02-08T13:59:40;15.80;;;7.97;;
33952;SDS011;20231;42.710;23.280;2023-02-08T14:04:36;17.23;;;8.05;;
33952;SDS011;20231;42.710;23.280;2023-02-08T14:07:05;15.55;;;7.15;;
33952;SDS011;20231;42.710;23.280;2023-02-08T14:12:44;14.60;;;8.68;;
33952;SDS011;20231;42.710;23.280;2023-02-08T14:17:47;14.70;;;8.18;;
33952;SDS011;20231;42.710;23.280;2023-02-08T14:20:53;17.73;;;8.55;;
33952;SDS011;20231;42.710;23.280;2023-02-08T14:23:27;14.20;;;7.38;;
33952;SDS011;20231;42.710;23.280;2023-02-08T14:25:54;15.63;;;7.05;;
33952;SDS011;20231;42.710;23.280;2023-02-08T14:28:25;11.65;;;6.90;;
33952;SDS011;20231;42.710;23.280;2023-02-08T14:30:55;15.93;;;8.88;;
33952;SDS011;20231;42.710;23.280;2023-02-08T14:33:24;20.75;;;9.32;;
33952;SDS011;20231;42.710;23.280;2023-02-08T14:36:03;16.67;;;8.57;;
33952;SDS011;20231;42.710;23.280;2023-02-08T14:41:15;13.02;;;8.15;;
33952;SDS011;20231;42.710;23.280;2023-02-08T14:50:35;17.50;;;7.72;;
33952;SDS011;20231;42.710;23.280;2023-02-08T14:52:42;23.20;;;8.93;;
33952;SDS011;20231;42.710;23.280;2023-02-08T14:55:44;17.50;;;7.63;;
33952;SDS011;20231;42.710;23.280;2023-02-08T14:58:30;13.23;;;7.53;;
33952;SDS011;20231;42.710;23.280;2023-02-08T15:00:59;18.25;;;9.43;;
33952;SDS011;20231;42.710;23.280;2023-02-08T15:03:30;22.05;;;9.07;;
33952;SDS011;20231;42.710;23.280;2023-02-08T15:08:58;16.10;;;7.35;;
33952;SDS011;20231;42.710;23.280;2023-02-08T15:11:25;14.07;;;7.38;;
33952;SDS011;20231;42.710;23.280;2023-02-08T15:13:55;23.88;;;7.57;;
33952;SDS011;20231;42.710;23.280;2023-02-08T15:16:23;11.15;;;7.35;;
33952;SDS011;20231;42.710;23.280;2023-02-08T15:18:57;12.23;;;7.05;;
33952;SDS011;20231;42.710;23.280;2023-02-08T15:21:23;15.15;;;7.07;;
33952;SDS011;20231;42.710;23.280;2023-02-08T15:24:01;10.80;;;6.47;;
33952;SDS011;20231;42.710;23.280;2023-02-08T15:26:28;13.23;;;7.35;;
33952;SDS011;20231;42.710;23.280;2023-02-08T15:28:54;14.05;;;7.45;;
33952;SDS011;20231;42.710;23.280;2023-02-08T15:31:21;12.88;;;8.00;;
33952;SDS011;20231;42.710;23.280;2023-02-08T15:33:51;13.20;;;7.25;;
33952;SDS011;20231;42.710;23.280;2023-02-08T15:36:24;16.17;;;7.93;;
33952;SDS011;20231;42.710;23.280;2023-02-08T15:38:53;11.98;;;5.47;;
33952;SDS011;20231;42.710;23.280;2023-02-08T15:41:28;18.40;;;8.30;;
33952;SDS011;20231;42.710;23.280;2023-02-08T15:44:00;13.70;;;7.53;;
33952;SDS011;20231;42.710;23.280;2023-02-08T15:46:41;16.63;;;7.38;;
33952;SDS011;20231;42.710;23.280;2023-02-08T15:49:14;18.42;;;9.13;;
33952;SDS011;20231;42.710;23.280;2023-02-08T15:51:42;21.75;;;8.45;;
33952;SDS011;20231;42.710;23.280;2023-02-08T15:54:16;23.35;;;9.65;;
33952;SDS011;20231;42.710;23.280;2023-02-08T15:56:50;14.68;;;7.82;;
33952;SDS011;20231;42.710;23.280;2023-02-08T15:59:24;19.42;;;8.90;;
33952;SDS011;20231;42.710;23.280;2023-02-08T16:01:53;12.50;;;8.25;;
33952;SDS011;20231;42.710;23.280;2023-02-08T16:04:21;20.05;;;11.10;;
33952;SDS011;20231;42.710;23.280;2023-02-08T16:06:51;18.10;;;7.45;;
33952;SDS011;20231;42.710;23.280;2023-02-08T16:09:24;17.48;;;7.60;;
33952;SDS011;20231;42.710;23.280;2023-02-08T16:11:52;15.57;;;8.45;;
33952;SDS011;20231;42.710;23.280;2023-02-08T16:14:22;16.38;;;8.38;;
33952;SDS011;20231;42.710;23.280;2023-02-08T16:16:50;20.17;;;9.05;;
33952;SDS011;20231;42.710;23.280;2023-02-08T16:19:19;14.95;;;7.70;;
33952;SDS011;20231;42.710;23.280;2023-02-08T16:21:44;20.00;;;9.43;;